createdAt,value
2023-01-07T00:01:02.521Z,5.47
2023-01-07T00:03:31.323Z,6.27
2023-01-07T00:06:03.161Z,5.87
2023-01-07T00:08:31.757Z,5.77
2023-01-07T00:11:04.378Z,7.07
2023-01-07T00:13:32.472Z,6.30
2023-01-07T00:16:01.039Z,6.13
2023-01-07T00:18:29.125Z,6.63
2023-01-07T00:20:58.051Z,6.80
2023-01-07T00:23:26.162Z,6.33
2023-01-07T00:26:00.483Z,6.13
2023-01-07T00:28:30.021Z,6.33
2023-01-07T00:31:01.219Z,6.77
2023-01-07T00:33:29.353Z,6.53
2023-01-07T00:36:01.086Z,7.10
2023-01-07T00:38:29.226Z,6.40
2023-01-07T00:40:57.283Z,7.13
2023-01-07T00:47:33.306Z,5.87
2023-01-07T00:50:01.388Z,6.33
2023-01-07T00:52:29.425Z,6.00
2023-01-07T00:54:59.095Z,6.83
2023-01-07T00:57:27.279Z,6.37
2023-01-07T00:59:55.335Z,6.03
2023-01-07T01:02:23.507Z,7.13
2023-01-07T01:04:52.912Z,5.83
2023-01-07T01:07:20.943Z,6.30
2023-01-07T01:09:48.963Z,5.73
2023-01-07T01:12:17.066Z,5.70
2023-01-07T01:14:45.306Z,5.43
2023-01-07T01:17:13.329Z,5.67
2023-01-07T01:19:41.612Z,5.60
2023-01-07T01:22:11.360Z,5.57
2023-01-07T01:24:39.502Z,5.57
2023-01-07T01:27:07.554Z,5.53
2023-01-07T01:29:35.652Z,5.60
2023-01-07T01:32:03.726Z,5.90
2023-01-07T01:34:31.828Z,5.80
2023-01-07T01:37:00.115Z,5.13
2023-01-07T01:39:29.585Z,5.33
2023-01-07T01:41:57.657Z,5.60
2023-01-07T01:44:38.595Z,5.50
2023-01-07T01:47:12.986Z,5.33
2023-01-07T01:49:46.374Z,5.50
2023-01-07T01:52:17.949Z,5.80
2023-01-07T01:54:53.019Z,5.33
2023-01-07T01:57:22.748Z,5.00
2023-01-07T01:59:52.886Z,4.90
2023-01-07T02:02:27.001Z,5.27
2023-01-07T02:04:57.238Z,4.83
2023-01-07T02:07:25.919Z,4.90
2023-01-07T02:10:01.421Z,5.10
2023-01-07T02:12:51.062Z,4.20
2023-01-07T02:15:27.558Z,4.50
2023-01-07T02:18:12.943Z,5.13
2023-01-07T02:21:03.441Z,5.17
2023-01-07T02:24:08.206Z,5.47
2023-01-07T02:27:12.122Z,4.87
2023-01-07T02:30:19.713Z,4.47
2023-01-07T02:33:21.504Z,5.23
2023-01-07T02:36:10.591Z,5.10
2023-01-07T02:38:50.033Z,4.20
2023-01-07T02:41:29.042Z,5.00
2023-01-07T02:44:04.618Z,4.57
2023-01-07T02:46:38.265Z,5.07
2023-01-07T02:49:09.939Z,4.70
2023-01-07T02:51:40.529Z,5.50
2023-01-07T02:54:13.251Z,4.63
2023-01-07T02:56:58.049Z,5.57
2023-01-07T02:59:58.529Z,5.00
2023-01-07T03:08:03.440Z,6.00
2023-01-07T03:10:39.012Z,5.50
2023-01-07T03:13:10.746Z,4.70
2023-01-07T03:15:42.998Z,5.10
2023-01-07T03:18:16.604Z,5.37
2023-01-07T03:20:46.937Z,5.63
2023-01-07T03:23:21.320Z,5.43
2023-01-07T03:25:51.299Z,5.50
2023-01-07T03:28:24.400Z,5.13
2023-01-07T03:30:54.251Z,5.17
2023-01-07T03:33:26.967Z,5.37
2023-01-07T03:35:57.177Z,5.70
2023-01-07T03:38:28.337Z,5.60
2023-01-07T03:40:56.494Z,5.40
2023-01-07T03:43:23.787Z,5.27
2023-01-07T03:45:54.404Z,5.17
2023-01-07T03:48:22.510Z,5.13
2023-01-07T03:50:50.755Z,5.07
2023-01-07T03:53:18.798Z,4.83
2023-01-07T03:55:48.211Z,6.53
2023-01-07T03:58:16.325Z,5.60
2023-01-07T04:00:44.432Z,4.83
2023-01-07T04:03:12.735Z,5.23
2023-01-07T04:05:40.801Z,5.13
2023-01-07T04:08:08.886Z,7.37
2023-01-07T04:10:37.195Z,5.27
2023-01-07T04:13:06.637Z,4.63
2023-01-07T04:15:35.351Z,5.97
2023-01-07T04:18:03.451Z,5.53
2023-01-07T04:20:31.600Z,5.63
2023-01-07T04:23:00.568Z,4.97
2023-01-07T04:25:28.683Z,6.03
2023-01-07T04:27:56.835Z,4.70
2023-01-07T04:30:26.353Z,5.47
2023-01-07T04:32:54.451Z,5.10
2023-01-07T04:35:22.624Z,4.37
2023-01-07T04:38:46.342Z,3.97
2023-01-07T04:41:14.431Z,3.83
2023-01-07T04:43:42.504Z,4.10
2023-01-07T04:46:12.103Z,4.50
2023-01-07T04:48:40.305Z,4.10
2023-01-07T04:51:08.410Z,4.13
2023-01-07T04:53:36.472Z,3.33
2023-01-07T04:56:06.361Z,3.90
2023-01-07T04:58:34.755Z,3.97
2023-01-07T05:01:04.611Z,5.93
2023-01-07T05:03:35.521Z,6.10
2023-01-07T05:06:04.412Z,4.20
2023-01-07T05:08:32.519Z,3.80
2023-01-07T05:11:02.127Z,4.03
2023-01-07T05:13:31.571Z,3.73
2023-01-07T05:15:59.736Z,3.50
2023-01-07T05:18:27.775Z,3.20
2023-01-07T05:20:57.212Z,3.53
2023-01-07T05:23:25.257Z,3.77
2023-01-07T05:25:53.347Z,3.60
2023-01-07T05:28:21.413Z,3.20
2023-01-07T05:30:49.518Z,3.50
2023-01-07T05:33:17.573Z,3.63
2023-01-07T05:35:48.165Z,3.00
2023-01-07T05:38:17.693Z,3.50
2023-01-07T05:40:49.753Z,3.10
2023-01-07T05:43:18.403Z,3.10
2023-01-07T05:45:46.779Z,2.90
2023-01-07T05:48:15.891Z,3.53
2023-01-07T05:50:44.052Z,3.20
2023-01-07T05:53:12.203Z,2.30
2023-01-07T05:55:41.680Z,2.83
2023-01-07T05:58:09.803Z,2.93
2023-01-07T06:00:38.230Z,3.07
2023-01-07T06:03:06.898Z,2.40
2023-01-07T06:05:34.976Z,3.23
2023-01-07T06:08:03.091Z,2.50
2023-01-07T06:10:31.159Z,2.13
2023-01-07T06:13:02.095Z,2.47
2023-01-07T06:15:30.524Z,2.63
2023-01-07T06:17:58.852Z,2.70
2023-01-07T06:20:27.045Z,2.70
2023-01-07T06:22:55.301Z,2.53
2023-01-07T06:25:23.367Z,2.07
2023-01-07T06:27:51.454Z,2.20
2023-01-07T06:30:21.021Z,2.33
2023-01-07T06:32:49.124Z,2.07
2023-01-07T06:35:17.376Z,2.27
2023-01-07T06:37:45.459Z,2.40
2023-01-07T06:40:13.913Z,2.10
2023-01-07T06:42:42.211Z,2.20
2023-01-07T06:45:11.071Z,2.13
2023-01-07T06:47:40.542Z,2.47
2023-01-07T06:50:09.651Z,2.37
2023-01-07T06:52:37.757Z,2.07
2023-01-07T06:55:06.373Z,2.13
2023-01-07T06:57:34.627Z,1.80
2023-01-07T07:00:02.743Z,1.80
2023-01-07T07:02:31.121Z,1.70
2023-01-07T07:05:00.623Z,1.70
2023-01-07T07:07:28.779Z,1.70
2023-01-07T07:09:56.847Z,1.57
2023-01-07T07:12:24.905Z,1.67
2023-01-07T07:14:53.001Z,1.60
2023-01-07T07:17:21.075Z,1.77
2023-01-07T07:19:49.129Z,1.43
2023-01-07T07:22:18.618Z,1.40
2023-01-07T07:24:46.698Z,1.67
2023-01-07T07:27:14.817Z,1.80
2023-01-07T07:29:42.963Z,1.63
2023-01-07T07:32:11.065Z,1.83
2023-01-07T07:34:39.157Z,1.30
2023-01-07T07:37:07.237Z,1.70
2023-01-07T07:39:36.853Z,1.63
2023-01-07T07:42:05.685Z,1.23
2023-01-07T07:44:33.727Z,1.57
2023-01-07T07:47:01.845Z,1.27
2023-01-07T07:49:29.883Z,1.60
2023-01-07T07:51:58.022Z,1.30
2023-01-07T07:54:26.437Z,1.13
2023-01-07T07:56:56.138Z,1.17
2023-01-07T07:59:24.242Z,1.27
2023-01-07T08:01:52.429Z,1.20
2023-01-07T08:04:20.546Z,1.27
2023-01-07T08:06:48.682Z,1.33
2023-01-07T08:09:16.774Z,1.20
2023-01-07T08:11:44.875Z,1.30
2023-01-07T08:14:14.315Z,1.10
2023-01-07T08:16:42.368Z,1.20
2023-01-07T08:19:11.186Z,1.53
2023-01-07T08:21:39.305Z,1.40
2023-01-07T08:24:07.799Z,1.20
2023-01-07T08:26:35.888Z,1.40
2023-01-07T08:29:04.349Z,1.20
2023-01-07T08:31:33.892Z,0.90
2023-01-07T08:34:02.022Z,1.23
2023-01-07T08:36:30.109Z,1.27
2023-01-07T08:38:58.193Z,1.10
2023-01-07T08:41:26.685Z,1.03
2023-01-07T08:43:55.253Z,0.97
2023-01-07T08:46:23.454Z,1.07
2023-01-07T08:48:52.868Z,1.00
2023-01-07T08:51:20.952Z,1.30
2023-01-07T08:53:49.051Z,1.00
2023-01-07T08:56:17.134Z,1.20
2023-01-07T08:58:45.197Z,1.30
2023-01-07T09:01:13.349Z,1.50
2023-01-07T09:03:41.549Z,1.23
2023-01-07T09:06:11.188Z,1.30
2023-01-07T09:08:40.490Z,1.20
2023-01-07T09:11:08.612Z,1.20
2023-01-07T09:13:36.696Z,1.40
2023-01-07T09:16:04.975Z,1.50
2023-01-07T09:18:33.060Z,1.30
2023-01-07T09:21:01.343Z,1.40
2023-01-07T09:23:30.868Z,1.30
2023-01-07T09:25:58.964Z,1.50
2023-01-07T09:28:27.012Z,1.13
2023-01-07T09:30:56.783Z,1.20
2023-01-07T09:33:25.394Z,1.70
2023-01-07T09:35:53.622Z,1.20
2023-01-07T09:38:21.689Z,1.80
2023-01-07T09:40:51.286Z,1.50
2023-01-07T09:43:25.443Z,1.10
2023-01-07T09:45:55.879Z,1.50
2023-01-07T09:48:30.614Z,1.30
2023-01-07T09:51:02.488Z,1.10
2023-01-07T09:53:37.293Z,1.23
2023-01-07T09:56:12.864Z,1.37
2023-01-07T09:58:46.247Z,1.40
2023-01-07T10:01:23.503Z,1.30
2023-01-07T10:03:59.272Z,1.40
2023-01-07T10:06:43.406Z,1.10
2023-01-07T10:09:20.330Z,1.17
2023-01-07T10:12:00.329Z,1.20
2023-01-07T10:14:51.126Z,1.30
2023-01-07T10:17:30.762Z,1.20
2023-01-07T10:20:03.301Z,1.43
2023-01-07T10:22:36.143Z,1.00
2023-01-07T10:25:07.926Z,1.00
2023-01-07T10:27:42.470Z,1.20
2023-01-07T10:30:17.026Z,1.43
2023-01-07T10:32:47.081Z,1.10
2023-01-07T10:35:19.269Z,1.10
2023-01-07T10:37:47.675Z,1.10
2023-01-07T10:40:29.835Z,0.83
2023-01-07T10:43:06.008Z,1.30
2023-01-07T10:45:49.911Z,1.00
2023-01-07T10:48:34.174Z,0.87
2023-01-07T10:51:15.094Z,1.00
2023-01-07T10:53:54.712Z,1.00
2023-01-07T10:56:27.834Z,1.00
2023-01-07T10:58:57.378Z,1.07
2023-01-07T11:01:28.471Z,1.20
2023-01-07T11:03:58.796Z,1.00
2023-01-07T11:06:37.278Z,1.30
2023-01-07T11:09:11.008Z,0.87
2023-01-07T11:11:40.378Z,1.00
2023-01-07T11:14:13.855Z,1.17
2023-01-07T11:16:48.783Z,1.10
2023-01-07T11:19:17.486Z,1.50
2023-01-07T11:21:48.610Z,1.00
2023-01-07T11:24:33.217Z,0.90
2023-01-07T11:27:05.335Z,0.90
2023-01-07T11:29:39.838Z,0.90
2023-01-07T11:32:18.858Z,1.00
2023-01-07T11:34:56.245Z,1.00
2023-01-07T11:37:43.257Z,0.90
2023-01-07T11:40:21.926Z,0.70
2023-01-07T11:42:52.347Z,0.90
2023-01-07T11:45:24.717Z,0.80
2023-01-07T11:48:02.501Z,0.90
2023-01-07T11:50:36.044Z,0.83
2023-01-07T11:53:22.430Z,0.87
2023-01-07T11:55:59.010Z,0.80
2023-01-07T11:58:30.995Z,0.90
2023-01-07T12:01:23.344Z,0.63
2023-01-07T12:04:13.749Z,0.90
2023-01-07T12:06:45.850Z,0.70
2023-01-07T12:09:33.517Z,1.00
2023-01-07T12:12:28.421Z,0.73
2023-01-07T12:14:57.094Z,0.97
2023-01-07T12:17:28.835Z,0.90
2023-01-07T12:20:30.253Z,0.93
2023-01-07T12:23:10.210Z,1.13
2023-01-07T12:25:45.773Z,0.97
2023-01-07T12:28:17.224Z,1.17
2023-01-07T12:31:24.186Z,0.87
2023-01-07T12:34:07.706Z,0.80
2023-01-07T12:36:47.748Z,1.47
2023-01-07T12:39:21.859Z,0.97
2023-01-07T12:41:59.751Z,1.00
2023-01-07T12:44:28.655Z,1.20
2023-01-07T12:47:29.741Z,1.20
2023-01-07T12:50:00.105Z,1.37
2023-01-07T12:52:39.785Z,1.17
2023-01-07T12:55:17.127Z,1.30
2023-01-07T12:57:46.767Z,1.20
2023-01-07T13:00:20.169Z,1.20
2023-01-07T13:02:58.072Z,1.33
2023-01-07T13:05:33.554Z,1.27
2023-01-07T13:08:09.714Z,1.47
2023-01-07T13:10:41.182Z,1.60
2023-01-07T13:13:14.925Z,1.67
2023-01-07T13:15:43.144Z,1.60
2023-01-07T13:18:16.567Z,1.67
2023-01-07T13:21:06.944Z,1.57
2023-01-07T13:24:07.315Z,2.70
2023-01-07T13:26:50.759Z,1.23
2023-01-07T13:29:28.849Z,1.60
2023-01-07T13:32:27.918Z,1.47
2023-01-07T13:35:17.409Z,1.57
2023-01-07T13:38:02.505Z,1.53
2023-01-07T13:40:48.946Z,1.80
2023-01-07T13:43:30.775Z,1.57
2023-01-07T13:46:02.656Z,1.43
2023-01-07T13:48:30.969Z,1.73
2023-01-07T13:51:01.787Z,2.10
2023-01-07T13:53:46.924Z,2.00
2023-01-07T13:56:41.325Z,2.00
2023-01-07T13:59:29.240Z,1.90
2023-01-07T14:02:18.420Z,2.03
2023-01-07T14:04:52.165Z,2.07
2023-01-07T14:07:21.521Z,2.07
2023-01-07T14:09:55.734Z,2.20
2023-01-07T14:13:08.650Z,2.40
2023-01-07T14:16:16.795Z,1.83
2023-01-07T14:19:04.278Z,2.93
2023-01-07T14:21:48.527Z,2.07
2023-01-07T14:24:43.891Z,2.10
2023-01-07T14:27:29.124Z,2.10
2023-01-07T14:30:02.945Z,2.43
2023-01-07T14:32:39.586Z,2.27
2023-01-07T14:35:20.971Z,2.70
2023-01-07T14:37:49.559Z,2.60
2023-01-07T14:41:00.399Z,2.87
2023-01-07T14:43:50.602Z,2.87
2023-01-07T14:46:50.613Z,2.47
2023-01-07T14:50:03.274Z,2.33
2023-01-07T14:53:00.635Z,2.17
2023-01-07T14:55:51.145Z,2.30
2023-01-07T14:59:00.054Z,2.10
2023-01-07T15:01:45.269Z,2.27
2023-01-07T15:04:45.754Z,2.50
2023-01-07T15:07:18.879Z,2.23
2023-01-07T15:10:25.574Z,2.63
2023-01-07T15:13:15.149Z,1.70
2023-01-07T15:16:02.348Z,2.37
2023-01-07T15:18:33.832Z,2.40
2023-01-07T15:21:12.510Z,1.93
2023-01-07T15:23:48.032Z,2.00
2023-01-07T15:26:22.128Z,1.80
2023-01-07T15:28:55.353Z,2.23
2023-01-07T15:31:30.131Z,2.10
2023-01-07T15:34:11.426Z,1.93
2023-01-07T15:36:45.211Z,1.87
2023-01-07T15:39:21.612Z,1.73
2023-01-07T15:41:52.979Z,1.50
2023-01-07T15:44:24.748Z,1.73
2023-01-07T15:46:52.999Z,1.60
2023-01-07T15:49:24.414Z,1.63
2023-01-07T15:51:55.915Z,2.97
2023-01-07T15:54:26.579Z,1.70
2023-01-07T15:56:58.410Z,2.00
2023-01-07T15:59:29.910Z,1.97
2023-01-07T16:02:14.890Z,2.33
2023-01-07T16:04:48.435Z,1.90
2023-01-07T16:07:23.949Z,2.47
2023-01-07T16:09:52.554Z,1.50
2023-01-07T16:12:22.183Z,1.90
2023-01-07T16:14:50.257Z,1.87
2023-01-07T16:17:19.605Z,2.37
2023-01-07T16:19:49.226Z,1.50
2023-01-07T16:22:19.612Z,1.90
2023-01-07T16:24:50.438Z,1.43
2023-01-07T16:27:29.432Z,1.77
2023-01-07T16:30:01.490Z,1.63
2023-01-07T16:32:29.917Z,1.63
2023-01-07T16:35:04.637Z,1.77
2023-01-07T16:37:33.480Z,2.00
2023-01-07T16:40:01.935Z,1.37
2023-01-07T16:42:30.073Z,1.50
2023-01-07T16:45:00.721Z,1.70
2023-01-07T16:47:30.458Z,1.83
2023-01-07T16:50:20.892Z,2.00
2023-01-07T16:52:52.727Z,1.70
2023-01-07T16:55:51.418Z,1.77
2023-01-07T16:58:27.780Z,1.87
2023-01-07T17:00:59.833Z,2.00
2023-01-07T17:03:29.613Z,1.80
2023-01-07T17:06:03.297Z,1.90
2023-01-07T17:08:32.366Z,1.87
2023-01-07T17:11:05.932Z,1.83
2023-01-07T17:13:37.447Z,2.20
2023-01-07T17:16:31.595Z,2.20
2023-01-07T17:19:21.386Z,1.70
2023-01-07T17:21:51.112Z,2.00
2023-01-07T17:24:47.263Z,2.00
2023-01-07T17:27:23.249Z,1.87
2023-01-07T17:29:51.399Z,2.07
2023-01-07T17:32:19.528Z,2.13
2023-01-07T17:34:47.687Z,2.57
2023-01-07T17:37:18.490Z,2.07
2023-01-07T17:39:46.582Z,2.30
2023-01-07T17:42:40.863Z,2.20
2023-01-07T17:45:12.189Z,2.30
2023-01-07T17:47:40.483Z,2.70
2023-01-07T17:50:09.097Z,2.57
2023-01-07T17:52:38.586Z,2.43
2023-01-07T17:55:07.259Z,2.60
2023-01-07T17:57:35.318Z,2.60
2023-01-07T18:00:03.791Z,2.27
2023-01-07T18:02:31.976Z,2.67
2023-01-07T18:05:00.159Z,2.80
2023-01-07T18:07:28.256Z,2.63
2023-01-07T18:09:58.250Z,3.33
2023-01-07T18:12:31.796Z,3.10
2023-01-07T18:15:00.377Z,3.30
2023-01-07T18:17:29.338Z,2.83
2023-01-07T18:19:57.458Z,2.90
2023-01-07T18:22:26.290Z,2.47
2023-01-07T18:24:54.348Z,2.60
2023-01-07T18:27:23.825Z,2.40
2023-01-07T18:29:51.952Z,2.53
2023-01-07T18:32:20.355Z,2.40
2023-01-07T18:34:48.446Z,2.50
2023-01-07T18:37:17.815Z,2.50
2023-01-07T18:39:45.893Z,2.20
2023-01-07T18:42:14.025Z,2.40
2023-01-07T18:44:43.503Z,2.40
2023-01-07T18:47:11.689Z,2.70
2023-01-07T18:49:39.809Z,3.23
2023-01-07T18:52:07.928Z,2.30
2023-01-07T18:54:38.020Z,2.50
2023-01-07T18:57:06.422Z,3.50
2023-01-07T18:59:34.820Z,2.60
2023-01-07T19:09:36.755Z,2.20
2023-01-07T19:12:05.698Z,2.50
2023-01-07T19:14:34.041Z,2.60
2023-01-07T19:17:02.437Z,4.43
2023-01-07T19:19:37.083Z,2.17
2023-01-07T19:22:11.818Z,2.53
2023-01-07T19:24:41.494Z,1.83
2023-01-07T19:27:09.672Z,2.03
2023-01-07T19:29:37.841Z,2.10
2023-01-07T19:32:06.631Z,2.03
2023-01-07T19:34:34.778Z,1.80
2023-01-07T19:37:02.941Z,1.90
2023-01-07T19:39:31.104Z,2.20
2023-01-07T19:42:00.749Z,1.87
2023-01-07T19:44:28.920Z,1.70
2023-01-07T19:46:57.045Z,1.83
2023-01-07T19:49:25.203Z,1.90
2023-01-07T19:51:53.444Z,1.70
2023-01-07T19:54:21.682Z,1.80
2023-01-07T19:56:50.086Z,1.70
2023-01-07T20:03:42.589Z,1.40
2023-01-07T20:06:14.026Z,1.87
2023-01-07T20:08:42.463Z,1.80
2023-01-07T20:11:11.301Z,1.87
2023-01-07T20:13:40.914Z,1.90
2023-01-07T20:16:11.938Z,1.57
2023-01-07T20:18:41.852Z,2.33
2023-01-07T20:21:12.728Z,1.90
2023-01-07T20:23:41.957Z,1.77
2023-01-07T20:26:13.297Z,1.90
2023-01-07T20:28:42.058Z,2.17
2023-01-07T20:31:15.944Z,1.60
2023-01-07T20:33:45.495Z,1.80
2023-01-07T20:36:17.117Z,2.00
2023-01-07T20:38:46.932Z,1.90
2023-01-07T20:41:17.514Z,1.70
2023-01-07T20:43:46.147Z,1.70
2023-01-07T20:46:14.433Z,1.40
2023-01-07T20:48:42.920Z,1.40
2023-01-07T20:51:13.601Z,1.20
2023-01-07T20:53:43.695Z,1.10
2023-01-07T20:56:12.490Z,1.67
2023-01-07T20:58:41.182Z,1.40
2023-01-07T21:01:12.479Z,1.40
2023-01-07T21:03:41.402Z,1.50
2023-01-07T21:06:10.921Z,1.30
2023-01-07T21:08:39.340Z,1.67
2023-01-07T21:11:12.696Z,1.40
2023-01-07T21:13:41.986Z,1.40
2023-01-07T21:16:10.480Z,1.50
2023-01-07T21:18:38.651Z,1.50
2023-01-07T21:21:11.561Z,1.50
2023-01-07T21:23:40.303Z,1.10
2023-01-07T21:26:12.854Z,1.40
2023-01-07T21:28:41.326Z,1.60
2023-01-07T21:31:11.532Z,1.50
2023-01-07T21:33:41.069Z,1.07
2023-01-07T21:36:10.243Z,1.10
2023-01-07T21:38:38.461Z,1.40
2023-01-07T21:41:08.907Z,1.23
2023-01-07T21:43:38.740Z,1.47
2023-01-07T21:46:08.113Z,1.50
2023-01-07T21:48:37.655Z,1.30
2023-01-07T21:51:07.325Z,1.43
2023-01-07T21:53:36.653Z,1.37
2023-01-07T21:56:07.568Z,1.53
2023-01-07T21:58:36.096Z,2.27
2023-01-07T22:01:06.692Z,1.40
2023-01-07T22:03:36.048Z,1.47
2023-01-07T22:06:07.186Z,1.50
2023-01-07T22:08:36.102Z,1.33
2023-01-07T22:11:04.231Z,1.70
2023-01-07T22:13:32.254Z,1.30
2023-01-07T22:16:00.358Z,1.70
2023-01-07T22:18:29.828Z,1.67
2023-01-07T22:20:57.927Z,1.70
2023-01-07T22:23:26.135Z,1.80
2023-01-07T22:25:54.189Z,1.80
2023-01-07T22:28:24.753Z,1.63
2023-01-07T22:30:54.223Z,2.10
2023-01-07T22:33:23.284Z,1.77
2023-01-07T22:35:53.006Z,1.90
2023-01-07T22:38:23.518Z,3.03
2023-01-07T22:40:51.999Z,1.47
2023-01-07T22:43:23.857Z,2.23
2023-01-07T22:45:55.008Z,1.40
2023-01-07T22:48:27.296Z,1.90
2023-01-07T22:51:01.705Z,1.63
2023-01-07T22:53:30.655Z,2.13
2023-01-07T22:55:59.816Z,2.10
2023-01-07T22:58:27.921Z,2.63
2023-01-07T23:01:15.417Z,2.00
2023-01-07T23:03:44.601Z,1.90
2023-01-07T23:06:16.244Z,2.00
2023-01-07T23:08:44.461Z,1.93
2023-01-07T23:11:34.080Z,1.87
2023-01-07T23:14:02.215Z,1.93
2023-01-07T23:16:30.343Z,2.07
2023-01-07T23:18:58.511Z,2.27
2023-01-07T23:21:28.185Z,2.10
2023-01-07T23:23:56.285Z,1.63
2023-01-07T23:26:24.300Z,2.17
2023-01-07T23:28:52.375Z,1.87
2023-01-07T23:31:20.553Z,2.17
2023-01-07T23:33:48.606Z,2.10
2023-01-07T23:36:16.741Z,2.10
2023-01-07T23:38:46.166Z,2.03
2023-01-07T23:41:14.350Z,2.13
2023-01-07T23:43:42.370Z,2.20
2023-01-07T23:46:10.891Z,2.00
2023-01-07T23:48:39.606Z,2.10
2023-01-07T23:51:10.119Z,2.30
2023-01-07T23:53:38.889Z,1.97
2023-01-07T23:56:09.744Z,2.27
2023-01-07T23:58:38.924Z,2.20
